Time;durP1;ratioP1;P1;durP2;ratioP2;P2;SDS_P1;SDS_P2;PMS_P1;PMS_P2;Temp;Humidity;BMP_temperature;BMP_pressure;BME280_temperature;BME280_humidity;BME280_pressure;Samples;Min_cycle;Max_cycle;Signal;HPM_P1;HPM_P2
2023/04/13 00:00:37;;;;;;;0.77;0.77;;;8.70;89.10;;;9.05;72.83;96751.75;5041047;28;20450;-73
2023/04/13 00:03:05;;;;;;;2.50;0.77;;;8.70;88.80;;;8.96;72.89;96753.97;5048480;28;20457;-75
2023/04/13 00:05:34;;;;;;;0.93;0.80;;;8.70;88.60;;;8.74;71.82;96738.44;5047288;28;20837;-75
2023/04/13 00:08:02;;;;;;;2.73;0.87;;;8.60;87.80;;;8.57;72.72;96715.94;5048252;28;20445;-75
2023/04/13 00:10:30;;;;;;;2.67;0.60;;;8.50;87.70;;;8.87;72.43;96740.06;5064776;28;20454;-74
2023/04/13 00:13:00;;;;;;;0.70;0.60;;;8.50;87.70;;;8.70;71.93;96723.78;5049270;28;20457;-73
2023/04/13 00:15:29;;;;;;;0.93;0.70;;;8.50;87.60;;;8.81;72.66;96759.03;5041774;28;20466;-75
2023/04/13 00:17:56;;;;;;;1.23;0.73;;;8.40;88.90;;;8.36;71.94;96712.75;5048883;28;20455;-74
2023/04/13 00:20:24;;;;;;;0.80;0.80;;;8.50;87.60;;;8.78;71.52;96779.16;5049124;28;20437;-74
2023/04/13 00:22:52;;;;;;;0.50;0.50;;;8.50;87.10;;;8.54;71.69;96768.41;5072706;28;20460;-73
2023/04/13 00:25:20;;;;;;;0.77;0.60;;;8.40;86.30;;;8.58;71.07;96776.84;5063517;28;20501;-73
2023/04/13 00:27:48;;;;;;;0.70;0.70;;;8.40;86.20;;;8.64;70.71;96778.59;5044030;28;21115;-71
2023/04/13 00:30:17;;;;;;;0.73;0.60;;;8.40;85.70;;;8.51;70.93;96795.78;5041447;28;20847;-73
2023/04/13 00:32:46;;;;;;;0.50;0.50;;;8.40;85.10;;;8.53;69.89;96795.53;5071711;28;20504;-73
2023/04/13 00:35:17;;;;;;;0.67;0.63;;;8.40;84.10;;;8.53;70.53;96803.63;5046935;28;20969;-73
2023/04/13 00:37:46;;;;;;;0.57;0.50;;;8.30;84.20;;;8.42;70.74;96808.75;5049147;28;20833;-72
2023/04/13 00:40:14;;;;;;;4.13;0.60;;;8.30;84.40;;;8.48;70.49;96812.34;5048833;28;20442;-71
2023/04/13 00:42:44;;;;;;;0.80;0.80;;;8.20;84.40;;;8.31;70.43;96783.41;5071531;28;20557;-72
2023/04/13 00:45:12;;;;;;;0.63;0.50;;;8.20;84.30;;;8.31;70.73;96796.88;5050912;28;20470;-72
2023/04/13 00:47:41;;;;;;;1.13;0.40;;;8.20;84.80;;;8.35;70.84;96799.94;5053793;28;21029;-76
2023/04/13 00:50:10;;;;;;;1.70;0.50;;;8.20;84.40;;;8.31;70.88;96796.06;5062386;28;20465;-71
2023/04/13 00:52:38;;;;;;;1.33;0.50;;;8.10;84.70;;;8.37;71.51;96792.44;5046776;28;20509;-72
2023/04/13 00:55:06;;;;;;;0.87;0.60;;;8.10;84.80;;;8.31;71.08;96796.06;5040824;28;20481;-72
2023/04/13 00:57:35;;;;;;;0.70;0.50;;;8.10;85.20;;;8.17;71.85;96800.81;5055769;28;20462;-74
2023/04/13 01:00:07;;;;;;;1.03;0.67;;;7.90;85.50;;;8.14;71.79;96788.66;5054059;28;20939;-74
2023/04/13 01:02:34;;;;;;;1.03;0.57;;;7.90;85.60;;;8.07;71.80;96793.31;5056665;28;20461;-74
2023/04/13 01:05:04;;;;;;;0.50;0.50;;;7.90;85.70;;;8.00;71.87;96803.34;5045379;28;20853;-73
2023/04/13 01:07:46;;;;;;;1.67;0.57;;;7.90;85.90;;;7.93;72.41;96773.84;5048296;28;20456;-72
2023/04/13 01:10:22;;;;;;;2.50;0.80;;;7.80;85.80;;;8.02;72.27;96782.44;5045717;28;20492;-73
2023/04/13 01:12:59;;;;;;;0.60;0.50;;;7.80;86.20;;;7.91;72.26;96765.22;5044803;28;20456;-76
2023/04/13 01:15:30;;;;;;;0.60;0.50;;;7.80;86.80;;;7.98;72.27;96794.69;5046167;28;20473;-75
2023/04/13 01:18:04;;;;;;;0.60;0.50;;;7.80;87.20;;;8.04;72.50;96791.09;5050123;28;20510;-75
2023/04/13 01:20:33;;;;;;;0.47;0.43;;;7.80;87.00;;;7.89;72.91;96786.94;5047870;28;20456;-73
2023/04/13 01:23:08;;;;;;;1.13;0.40;;;7.70;87.00;;;7.90;73.22;96793.16;5056504;28;20456;-75
2023/04/13 01:25:40;;;;;;;1.53;0.67;;;7.70;87.40;;;7.88;73.23;96793.38;5045055;28;21045;-73
2023/04/13 01:28:12;;;;;;;0.47;0.43;;;7.60;87.90;;;7.75;73.09;96799.75;5045351;28;20464;-72
2023/04/13 01:30:41;;;;;;;2.13;0.80;;;7.60;88.00;;;7.73;73.24;96801.03;5037427;28;20521;-74
2023/04/13 01:33:10;;;;;;;1.70;0.70;;;7.50;87.90;;;7.62;73.25;96783.78;5062079;28;20452;-73
2023/04/13 01:35:38;;;;;;;1.17;0.77;;;7.50;88.70;;;7.71;73.63;96806.63;5046049;28;20530;-76
2023/04/13 01:38:07;;;;;;;0.80;0.80;;;7.50;89.20;;;7.59;73.54;96778.88;5072637;28;20997;-73
2023/04/13 01:40:39;;;;;;;0.50;0.40;;;7.50;89.00;;;7.70;73.67;96806.84;5068031;28;20511;-74
2023/04/13 01:43:09;;;;;;;0.50;0.50;;;7.40;89.50;;;7.75;73.29;96813.19;5045761;28;20452;-75
2023/04/13 01:45:46;;;;;;;1.50;0.50;;;7.50;89.30;;;7.77;73.41;96818.34;5045581;28;20848;-72
2023/04/13 01:48:27;;;;;;;1.00;0.53;;;7.50;89.60;;;7.71;73.68;96819.25;5051949;28;20447;-76
2023/04/13 01:50:58;;;;;;;2.00;1.00;;;7.40;89.60;;;7.20;73.52;96738.81;5058521;28;20454;-73
2023/04/13 01:53:30;;;;;;;2.43;0.70;;;7.40;90.10;;;7.64;74.12;96817.44;5044714;28;20467;-74
2023/04/13 01:55:59;;;;;;;0.97;0.70;;;7.40;90.00;;;7.69;74.06;96824.84;5044776;28;20480;-74
2023/04/13 01:58:28;;;;;;;0.60;0.50;;;7.40;90.20;;;7.70;73.96;96829.16;5045847;28;20457;-72
2023/04/13 02:00:56;;;;;;;1.07;0.60;;;7.40;89.90;;;7.55;74.98;96839.50;5039885;28;20456;-72
2023/04/13 02:03:23;;;;;;;1.63;0.63;;;7.40;90.00;;;7.24;75.55;96831.38;5047134;28;20500;-71
2023/04/13 02:05:50;;;;;;;0.70;0.60;;;7.30;90.20;;;7.32;75.80;96838.31;5048570;28;20572;-70
2023/04/13 02:08:19;;;;;;;0.67;0.50;;;7.30;90.50;;;7.34;75.71;96825.47;5054124;28;20453;-71
2023/04/13 02:10:47;;;;;;;1.43;0.80;;;7.30;90.60;;;7.35;76.07;96822.56;5057072;28;20523;-70
2023/04/13 02:13:15;;;;;;;1.37;0.80;;;7.30;90.90;;;7.46;75.18;96821.00;5034290;28;20456;-71
2023/04/13 02:15:44;;;;;;;1.40;0.90;;;7.30;90.70;;;7.41;75.72;96811.97;5053675;28;20474;-72
2023/04/13 02:18:12;;;;;;;1.23;0.70;;;7.30;90.80;;;7.33;75.51;96802.34;5045003;28;20987;-73
2023/04/13 02:20:44;;;;;;;0.97;0.60;;;7.30;90.90;;;7.27;75.84;96784.41;5040423;28;20455;-73
2023/04/13 02:23:13;;;;;;;1.90;0.90;;;7.20;91.00;;;7.30;75.96;96776.72;5046706;28;20484;-73
2023/04/13 02:25:45;;;;;;;1.10;0.70;;;7.20;91.20;;;7.40;75.21;96780.75;5042656;28;21352;-72
2023/04/13 02:28:12;;;;;;;1.00;0.70;;;7.20;91.10;;;7.42;75.62;96789.41;5037727;28;20571;-73
2023/04/13 02:30:39;;;;;;;1.10;0.70;;;7.10;91.60;;;7.35;75.53;96782.25;5035429;28;20472;-74
2023/04/13 02:33:08;;;;;;;1.23;0.60;;;7.10;92.00;;;7.30;76.29;96776.72;5048706;28;20448;-71
2023/04/13 02:35:37;;;;;;;2.40;1.00;;;7.10;91.70;;;7.15;76.87;96777.13;5047518;28;20476;-72
2023/04/13 02:38:09;;;;;;;0.80;0.80;;;7.00;91.90;;;7.16;76.47;96776.06;5048281;28;20971;-72
2023/04/13 02:40:37;;;;;;;1.43;0.80;;;6.90;92.00;;;7.23;76.59;96781.38;5052012;28;20943;-72
2023/04/13 02:43:04;;;;;;;4.00;1.07;;;6.90;92.80;;;7.12;76.60;96792.84;5062086;28;20540;-73
2023/04/13 02:45:32;;;;;;;0.93;0.70;;;7.00;92.30;;;7.15;76.85;96800.47;5043911;28;21378;-73
2023/04/13 02:47:59;;;;;;;3.43;1.20;;;7.00;92.10;;;7.15;76.66;96789.72;5060335;28;20478;-71
2023/04/13 02:50:28;;;;;;;3.27;1.13;;;7.00;92.30;;;7.06;77.36;96797.25;5044374;28;20498;-73
2023/04/13 02:52:55;;;;;;;1.43;1.07;;;6.90;92.60;;;7.11;76.87;96794.69;5048573;28;20522;-72
2023/04/13 02:55:22;;;;;;;1.67;0.83;;;6.90;92.70;;;6.97;76.75;96769.03;5055873;28;20468;-71
2023/04/13 02:57:50;;;;;;;0.70;0.70;;;6.90;92.50;;;7.12;77.12;96790.16;5040531;28;20462;-74
2023/04/13 03:00:18;;;;;;;2.60;1.10;;;7.00;92.40;;;7.04;77.11;96802.03;5040438;28;20458;-73
2023/04/13 03:02:47;;;;;;;1.10;1.00;;;6.90;92.30;;;7.07;77.04;96810.47;5043645;28;20452;-78
2023/04/13 03:05:15;;;;;;;1.40;1.03;;;7.00;92.00;;;7.05;77.06;96820.63;5039220;28;20701;-74
2023/04/13 03:07:44;;;;;;;1.17;0.90;;;7.00;91.80;;;6.98;77.00;96811.78;5047253;28;20546;-74
2023/04/13 03:10:12;;;;;;;2.33;1.00;;;7.00;91.80;;;7.02;76.89;96810.28;5040460;28;20486;-72
2023/04/13 03:12:39;;;;;;;1.23;0.73;;;6.90;92.00;;;6.99;77.54;96828.72;5046567;28;21009;-76
2023/04/13 03:15:10;;;;;;;1.10;0.83;;;6.90;92.30;;;6.97;77.23;96810.16;5043733;28;20576;-74
2023/04/13 03:17:40;;;;;;;1.90;1.13;;;6.90;92.60;;;7.02;77.98;96822.91;5051751;28;20514;-74
2023/04/13 03:20:11;;;;;;;1.50;0.87;;;6.90;92.80;;;7.00;77.45;96825.81;5052887;28;21237;-72
2023/04/13 03:22:39;;;;;;;0.87;0.87;;;6.90;92.70;;;7.06;77.69;96830.31;5047888;28;20458;-72
2023/04/13 03:25:08;;;;;;;0.97;0.80;;;6.80;93.00;;;7.01;77.77;96822.06;5061489;28;20460;-72
2023/04/13 03:27:36;;;;;;;1.17;1.00;;;6.80;93.30;;;6.84;78.54;96837.13;5053952;28;20461;-72
2023/04/13 03:30:04;;;;;;;1.73;0.90;;;6.80;93.40;;;6.89;77.95;96839.97;5053672;28;20941;-73
2023/04/13 03:32:32;;;;;;;0.77;0.77;;;6.80;93.40;;;6.85;78.69;96846.81;5045970;28;20461;-73
2023/04/13 03:34:59;;;;;;;4.33;1.30;;;6.70;93.80;;;6.81;78.57;96843.75;5051446;28;20472;-72
2023/04/13 03:37:28;;;;;;;1.00;0.90;;;6.70;93.70;;;6.65;79.16;96851.31;5047308;28;20456;-73
2023/04/13 03:39:56;;;;;;;1.67;0.93;;;6.70;93.70;;;6.63;79.48;96852.59;5044628;28;20459;-75
2023/04/13 03:42:25;;;;;;;2.10;1.17;;;6.70;93.70;;;6.52;79.35;96825.41;5045381;28;20531;-72
2023/04/13 03:44:52;;;;;;;1.90;0.83;;;6.70;94.20;;;6.55;79.84;96842.09;5049217;28;20466;-73
2023/04/13 03:47:20;;;;;;;0.93;0.80;;;6.70;94.00;;;6.27;80.04;96803.09;5062133;28;20460;-76
2023/04/13 03:49:47;;;;;;;1.70;1.03;;;6.60;94.30;;;6.30;80.39;96826.81;5070803;28;20475;-72
2023/04/13 03:52:15;;;;;;;2.20;1.10;;;6.60;95.00;;;6.50;79.93;96840.91;5050031;28;20465;-72
2023/04/13 03:54:42;;;;;;;0.90;0.80;;;6.60;94.80;;;6.70;79.67;96858.72;5059378;28;20448;-75
2023/04/13 03:57:09;;;;;;;4.50;1.10;;;6.60;95.00;;;6.60;79.62;96869.94;5064278;28;20467;-71
2023/04/13 03:59:38;;;;;;;1.27;1.17;;;6.60;94.80;;;6.70;79.47;96858.72;5053857;28;20779;-73
2023/04/13 04:02:06;;;;;;;1.43;1.10;;;6.50;94.60;;;6.66;79.26;96874.41;5057766;28;20464;-72
2023/04/13 04:04:33;;;;;;;1.67;0.93;;;6.50;94.40;;;6.65;79.15;96866.59;5052721;28;20457;-73
2023/04/13 04:07:00;;;;;;;1.83;0.90;;;6.50;94.30;;;6.72;77.35;96851.25;5070191;28;20451;-74
2023/04/13 04:09:28;;;;;;;1.97;0.90;;;6.50;93.30;;;6.69;77.07;96848.22;5051814;28;20511;-72
2023/04/13 04:11:56;;;;;;;0.90;0.90;;;6.50;92.60;;;6.76;76.66;96863.22;5045612;28;20487;-72
2023/04/13 04:14:23;;;;;;;0.97;0.80;;;6.40;92.70;;;6.78;76.53;96877.25;5047926;28;20446;-74
2023/04/13 04:16:52;;;;;;;1.33;1.03;;;6.50;92.30;;;6.54;76.15;96886.91;5042998;28;20496;-74
2023/04/13 04:19:19;;;;;;;1.00;0.90;;;6.50;91.10;;;6.71;75.64;96879.13;5077677;28;20461;-73
2023/04/13 04:21:48;;;;;;;2.63;1.00;;;6.50;90.80;;;6.79;75.08;96878.03;5045382;28;20518;-74
2023/04/13 04:24:21;;;;;;;2.20;1.07;;;6.60;90.60;;;6.98;74.06;96872.75;5047641;28;20456;-74
2023/04/13 04:26:49;;;;;;;1.53;0.70;;;6.60;90.50;;;6.86;74.17;96883.34;5058013;28;20456;-74
2023/04/13 04:29:20;;;;;;;1.80;1.17;;;6.60;89.70;;;6.71;74.24;96879.13;5039475;28;20454;-74
2023/04/13 04:31:51;;;;;;;2.10;1.07;;;6.60;88.40;;;6.58;73.77;96857.75;5049582;28;20457;-74
2023/04/13 04:34:20;;;;;;;5.50;1.20;;;6.60;87.40;;;6.79;73.38;96861.94;5045759;28;20478;-74
2023/04/13 04:36:50;;;;;;;2.20;1.20;;;6.60;88.00;;;6.68;73.99;96871.53;5055362;28;20481;-76
2023/04/13 04:39:21;;;;;;;1.40;1.23;;;6.60;87.50;;;6.63;74.14;96874.88;5038088;28;20459;-70
2023/04/13 04:41:48;;;;;;;1.83;1.10;;;6.70;87.70;;;6.69;73.55;96873.16;5043650;28;20451;-71
2023/04/13 04:44:16;;;;;;;3.30;1.90;;;6.60;87.60;;;6.65;73.69;96871.97;5047068;28;20440;-71
2023/04/13 04:46:44;;;;;;;3.47;0.97;;;6.60;87.20;;;6.21;73.50;96802.94;5033506;28;20528;-72
2023/04/13 04:49:11;;;;;;;1.30;1.10;;;6.60;87.30;;;6.09;73.98;96791.25;5074245;28;20591;-73
2023/04/13 04:51:40;;;;;;;2.30;1.30;;;6.60;87.70;;;6.73;73.65;96877.06;5043622;28;20462;-71
2023/04/13 04:54:07;;;;;;;4.00;1.20;;;6.50;88.10;;;6.73;73.41;96873.56;5039687;28;20610;-69
2023/04/13 04:56:34;;;;;;;1.60;0.90;;;6.60;88.20;;;6.60;74.36;96872.63;5046026;28;20476;-71
2023/04/13 04:59:01;;;;;;;1.60;1.17;;;6.60;87.40;;;6.82;72.69;96879.47;5048475;28;20463;-73
2023/04/13 05:01:28;;;;;;;1.13;1.03;;;6.60;87.00;;;6.97;72.45;96893.41;5048574;28;20950;-70
2023/04/13 05:03:56;;;;;;;1.83;1.13;;;6.70;86.60;;;6.92;72.27;96887.88;5039945;28;20460;-75
2023/04/13 05:06:23;;;;;;;1.97;1.50;;;6.70;86.50;;;7.02;72.27;96893.56;5040407;28;20457;-73
2023/04/13 05:08:51;;;;;;;2.33;1.30;;;6.80;86.70;;;7.08;71.94;96886.47;5039687;28;20442;-71
2023/04/13 05:11:19;;;;;;;1.23;0.97;;;6.80;86.20;;;7.02;70.97;96888.19;5054085;28;20454;-72
2023/04/13 05:13:46;;;;;;;1.27;1.00;;;6.90;84.60;;;6.87;71.38;96895.75;5044732;28;20471;-72
2023/04/13 05:16:13;;;;;;;1.30;1.03;;;6.80;83.90;;;7.04;70.56;96894.16;5066256;28;20577;-72
2023/04/13 05:18:45;;;;;;;2.33;1.67;;;6.90;83.80;;;6.88;71.09;96902.75;5048079;28;20482;-78
2023/04/13 05:21:13;;;;;;;1.43;1.00;;;6.80;83.50;;;6.85;70.90;96897.84;5043166;28;20508;-77
2023/04/13 05:23:41;;;;;;;1.87;1.30;;;6.80;83.60;;;6.83;71.23;96903.44;5045460;28;20479;-73
2023/04/13 05:26:12;;;;;;;1.87;1.13;;;6.70;84.10;;;6.68;71.21;96909.09;5054409;28;20603;-74
2023/04/13 05:28:39;;;;;;;1.60;1.37;;;6.60;83.80;;;6.71;70.98;96908.66;5049460;28;21141;-72
2023/04/13 05:31:09;;;;;;;2.07;0.93;;;6.60;83.30;;;6.52;70.22;96840.66;5046756;28;20448;-74
2023/04/13 05:33:37;;;;;;;2.47;0.77;;;6.70;83.30;;;6.99;68.85;96915.47;5059612;28;20447;-74
2023/04/13 05:36:07;;;;;;;2.50;1.03;;;6.70;82.40;;;6.80;69.32;96909.22;5045309;28;20950;-74
2023/04/13 05:38:34;;;;;;;2.60;1.50;;;6.70;82.10;;;6.62;69.80;96910.00;5041344;28;20602;-74
2023/04/13 05:41:02;;;;;;;3.53;2.80;;;6.60;82.10;;;6.75;70.58;96888.41;5044055;28;20465;-75
2023/04/13 05:43:31;;;;;;;2.10;0.87;;;6.70;82.60;;;6.85;68.81;96913.94;5042513;28;21297;-75
2023/04/13 05:45:58;;;;;;;2.80;1.57;;;6.80;81.60;;;7.12;68.08;96894.91;5042345;28;21138;-75
2023/04/13 05:48:25;;;;;;;4.43;1.40;;;7.00;81.50;;;7.37;66.98;96900.25;5045726;28;20452;-75
2023/04/13 05:50:57;;;;;;;1.23;0.77;;;7.20;80.40;;;7.53;66.15;96919.53;5043781;28;20545;-73
2023/04/13 05:53:25;;;;;;;4.03;0.80;;;7.40;79.50;;;7.87;64.50;96907.38;5043492;28;20454;-75
2023/04/13 05:55:54;;;;;;;9.30;1.80;;;7.60;78.70;;;7.73;64.73;96903.19;5055720;28;20566;-76
2023/04/13 05:58:25;;;;;;;3.63;0.97;;;7.60;78.20;;;7.68;64.62;96906.53;5062463;28;20444;-75
2023/04/13 06:00:53;;;;;;;1.80;0.80;;;7.60;77.70;;;7.75;64.01;96906.47;5038902;28;20455;-76
2023/04/13 06:03:21;;;;;;;2.27;1.20;;;7.70;77.40;;;7.71;63.18;96905.28;5042190;28;20538;-74
2023/04/13 06:05:48;;;;;;;3.30;1.00;;;7.70;76.60;;;7.99;62.58;96902.03;5040333;28;20466;-74
2023/04/13 06:08:15;;;;;;;3.03;0.97;;;7.80;76.50;;;8.22;61.15;96901.31;5042529;28;20442;-74
2023/04/13 06:10:44;;;;;;;1.00;0.87;;;8.00;75.50;;;8.30;61.41;96894.00;5048589;28;20968;-71
2023/04/13 06:13:12;;;;;;;2.10;1.00;;;8.20;75.10;;;8.55;61.58;96898.44;5044406;28;20467;-75
2023/04/13 06:15:39;;;;;;;2.53;1.30;;;8.30;75.40;;;8.51;59.72;96863.09;5046353;28;20467;-71
2023/04/13 06:18:09;;;;;;;3.00;0.90;;;8.50;74.80;;;8.71;59.72;96900.47;5045388;28;20469;-73
2023/04/13 06:20:36;;;;;;;1.77;1.07;;;8.50;74.00;;;8.92;59.41;96903.69;5073616;28;20494;-73
2023/04/13 06:23:03;;;;;;;2.20;1.00;;;8.60;74.20;;;9.01;59.88;96913.03;5047413;28;20465;-74
2023/04/13 06:25:31;;;;;;;3.07;1.50;;;8.70;74.20;;;8.76;59.29;96915.94;5046397;28;20520;-74
2023/04/13 06:28:00;;;;;;;3.10;1.10;;;8.70;73.10;;;8.63;58.27;96915.06;5064988;28;20463;-72
2023/04/13 06:30:28;;;;;;;2.70;1.00;;;8.70;71.80;;;8.08;59.30;96914.16;5041842;28;20540;-73
2023/04/13 06:32:55;;;;;;;2.00;1.40;;;8.40;71.90;;;8.45;59.02;96932.09;5043557;28;20834;-71
2023/04/13 06:35:24;;;;;;;2.40;1.03;;;8.40;72.80;;;9.05;58.66;96925.00;5041404;28;20189;-72
2023/04/13 06:37:51;;;;;;;2.30;0.90;;;8.60;72.80;;;8.98;58.49;96928.88;5040700;28;20965;-73
2023/04/13 06:40:19;;;;;;;4.63;1.30;;;8.80;71.90;;;9.50;56.73;96933.59;5063640;28;20959;-74
2023/04/13 06:42:46;;;;;;;1.00;0.90;;;9.20;71.60;;;9.33;56.47;96926.22;5040066;28;20880;-73
2023/04/13 06:45:14;;;;;;;2.63;1.50;;;9.40;70.10;;;9.50;55.43;96925.50;5036650;28;20961;-73
2023/04/13 06:47:41;;;;;;;2.90;1.27;;;9.50;69.40;;;9.43;55.27;96919.41;5047982;28;20467;-74
2023/04/13 06:50:12;;;;;;;2.93;0.93;;;9.40;68.80;;;8.95;56.16;96922.06;5046716;28;20855;-72
2023/04/13 06:52:43;;;;;;;3.70;1.60;;;9.20;68.70;;;8.91;57.20;96912.81;5045569;28;20451;-70
2023/04/13 06:55:11;;;;;;;2.23;1.23;;;9.00;69.00;;;9.14;55.91;96903.94;5051526;28;20478;-71
2023/04/13 06:57:38;;;;;;;1.73;1.10;;;9.10;68.60;;;9.27;55.19;96900.19;5049582;28;20573;-72
2023/04/13 07:00:08;;;;;;;5.70;2.17;;;9.30;68.50;;;9.50;55.31;96923.63;5046839;28;20456;-71
2023/04/13 07:02:35;;;;;;;1.83;0.70;;;9.40;68.10;;;9.86;54.42;96923.56;5044801;28;21004;-70
2023/04/13 07:05:02;;;;;;;2.40;0.60;;;9.70;67.70;;;9.95;53.99;96921.31;5041236;28;20523;-71
2023/04/13 07:07:30;;;;;;;2.37;1.30;;;9.80;67.40;;;10.18;53.62;96912.34;5049388;28;20451;-73
2023/04/13 07:09:59;;;;;;;3.23;2.13;;;10.00;66.20;;;10.69;52.47;96925.22;5039422;28;20459;-72
2023/04/13 07:12:26;;;;;;;2.37;0.80;;;10.30;65.70;;;10.60;52.59;96930.16;5062470;28;20938;-72
2023/04/13 07:14:53;;;;;;;1.30;0.80;;;10.40;64.80;;;10.64;52.87;96930.50;5041449;28;20515;-72
2023/04/13 07:17:21;;;;;;;1.83;0.90;;;10.50;64.80;;;10.71;51.16;96942.00;5054389;28;20562;-71
2023/04/13 07:19:48;;;;;;;2.80;1.20;;;10.60;63.30;;;10.56;52.28;96941.72;5042569;28;20456;-71
2023/04/13 07:22:16;;;;;;;2.73;1.00;;;10.50;63.20;;;10.47;52.40;96955.59;5044784;28;20825;-72
2023/04/13 07:24:44;;;;;;;2.30;0.70;;;10.50;62.60;;;10.65;51.66;96951.03;5046808;28;20480;-72
2023/04/13 07:27:12;;;;;;;1.27;1.00;;;10.50;62.50;;;10.16;52.01;96932.53;5043849;28;20973;-72
2023/04/13 07:29:39;;;;;;;2.13;0.90;;;10.30;62.10;;;10.13;52.59;96939.25;5054800;28;20463;-72
2023/04/13 07:32:07;;;;;;;3.93;0.90;;;10.30;62.30;;;10.75;51.16;96950.41;5038578;28;20454;-72
2023/04/13 07:34:36;;;;;;;1.93;1.10;;;10.50;62.10;;;11.02;50.50;96945.22;5039008;28;21125;-72
2023/04/13 07:37:03;;;;;;;2.70;1.00;;;10.80;61.50;;;11.04;49.76;96948.50;5038304;28;20462;-72
2023/04/13 07:39:31;;;;;;;1.83;0.63;;;10.90;60.50;;;11.42;48.96;96961.50;5055033;28;20461;-72
2023/04/13 07:41:58;;;;;;;2.87;1.53;;;11.20;60.20;;;11.00;49.41;96941.94;5034933;28;20976;-71
2023/04/13 07:44:28;;;;;;;1.90;1.10;;;11.20;59.50;;;11.14;49.94;96960.53;5047570;28;20952;-72
2023/04/13 07:46:56;;;;;;;1.87;0.97;;;11.10;59.80;;;11.28;49.45;96959.13;5036504;28;20454;-71
2023/04/13 07:49:23;;;;;;;1.87;0.73;;;11.10;59.90;;;11.07;49.76;96959.88;5053701;28;20862;-71
2023/04/13 07:51:53;;;;;;;1.63;1.17;;;11.00;59.80;;;11.04;49.62;96959.31;5064301;28;20442;-71
2023/04/13 07:54:20;;;;;;;4.10;0.90;;;11.10;59.70;;;10.37;49.78;96866.25;5036178;28;20472;-72
2023/04/13 07:56:48;;;;;;;2.70;1.00;;;11.00;59.00;;;10.62;49.93;96957.78;5048993;28;20564;-72
2023/04/13 07:59:15;;;;;;;3.73;0.90;;;10.70;58.80;;;10.66;49.45;96912.16;5047657;28;20518;-72
2023/04/13 08:01:44;;;;;;;2.83;1.10;;;10.70;58.90;;;10.77;49.99;96959.13;5039219;28;20541;-70
2023/04/13 08:04:11;;;;;;;1.50;0.80;;;10.70;59.00;;;11.33;48.93;96967.34;5039189;28;20492;-71
2023/04/13 08:06:39;;;;;;;3.10;0.90;;;10.90;59.60;;;10.71;49.72;96971.72;5026683;28;20473;-70
2023/04/13 08:09:07;;;;;;;2.40;1.10;;;10.70;58.60;;;10.76;49.14;96952.88;5033810;28;21010;-71
2023/04/13 08:11:35;;;;;;;1.67;0.90;;;10.70;58.70;;;11.09;49.63;96976.66;5047534;28;20793;-71
2023/04/13 08:14:03;;;;;;;1.07;0.93;;;10.80;58.90;;;10.80;50.07;96957.78;5031659;28;20575;-71
2023/04/13 08:16:33;;;;;;;1.90;1.10;;;10.80;58.60;;;10.61;49.32;96920.19;5053615;28;20560;-71
2023/04/13 08:19:01;;;;;;;2.27;0.80;;;10.90;58.40;;;10.97;49.47;96972.13;5024875;28;20486;-72
2023/04/13 08:21:29;;;;;;;4.07;1.37;;;10.90;58.60;;;10.83;49.25;96970.81;5033909;28;20449;-71
2023/04/13 08:23:57;;;;;;;1.90;1.53;;;10.80;57.90;;;11.23;49.62;96969.06;5039337;28;21025;-71
2023/04/13 08:26:26;;;;;;;2.40;0.80;;;11.00;58.30;;;10.94;49.34;96953.72;5041836;28;20457;-71
2023/04/13 08:28:54;;;;;;;3.50;1.20;;;11.10;58.20;;;10.20;51.10;96961.50;5070015;28;20807;-72
2023/04/13 08:31:21;;;;;;;2.40;0.93;;;10.40;58.30;;;10.33;49.66;96868.63;5040689;28;20461;-70
2023/04/13 08:33:49;;;;;;;1.80;0.77;;;10.60;58.80;;;10.51;50.99;96972.13;5049376;28;20449;-70
2023/04/13 08:36:17;;;;;;;5.73;1.13;;;10.60;58.80;;;10.35;51.10;96961.00;5045818;28;20838;-71
2023/04/13 08:38:45;;;;;;;3.00;1.50;;;10.40;58.90;;;10.23;51.37;96976.41;5035290;28;21258;-71
2023/04/13 08:41:14;;;;;;;2.57;1.10;;;10.30;59.20;;;10.48;51.12;96961.81;5045136;28;20486;-71
2023/04/13 08:43:41;;;;;;;3.80;1.30;;;10.30;59.20;;;11.38;49.73;96963.06;5041800;28;20490;-71
2023/04/13 08:46:08;;;;;;;4.70;1.30;;;10.80;59.30;;;11.64;48.88;96977.00;5040819;28;20544;-70
2023/04/13 08:48:42;;;;;;;2.20;1.20;;;11.30;58.30;;;11.90;48.62;96960.06;5046215;28;20468;-71
2023/04/13 08:51:10;;;;;;;3.37;1.10;;;11.70;58.50;;;11.94;48.05;96970.38;5043892;28;20460;-70
2023/04/13 08:53:39;;;;;;;2.40;1.20;;;11.90;57.90;;;11.27;49.04;96946.69;5052482;28;20475;-70
2023/04/13 08:56:09;;;;;;;2.90;1.77;;;11.50;57.20;;;11.73;48.43;96959.25;5054777;28;20457;-71
2023/04/13 08:58:42;;;;;;;4.90;1.40;;;11.60;57.90;;;11.48;48.39;96952.44;5056484;28;21035;-71
2023/04/13 09:01:12;;;;;;;3.30;1.50;;;11.50;57.20;;;11.60;48.47;96958.56;5056516;28;20941;-69
2023/04/13 09:03:48;;;;;;;3.50;1.27;;;11.60;57.40;;;11.77;48.03;96952.31;5062168;28;20534;-72
2023/04/13 09:06:24;;;;;;;3.80;1.20;;;11.70;57.00;;;12.12;47.20;96964.69;5034101;28;20544;-72
2023/04/13 09:08:54;;;;;;;3.63;1.47;;;11.90;57.10;;;11.62;47.78;96958.31;5031373;28;20581;-71
2023/04/13 09:11:21;;;;;;;6.40;2.00;;;11.60;56.40;;;12.16;47.08;96951.50;5036079;28;20578;-71
2023/04/13 09:13:50;;;;;;;3.63;1.30;;;11.90;56.60;;;12.14;46.92;96942.81;5039217;28;20465;-71
2023/04/13 09:16:19;;;;;;;3.80;1.60;;;12.00;56.30;;;12.10;47.57;96953.31;5040035;28;20447;-77
2023/04/13 09:18:51;;;;;;;3.87;1.20;;;12.00;56.40;;;11.55;47.69;96958.47;5040245;28;20693;-82
2023/04/13 09:21:18;;;;;;;2.22;1.30;;;11.80;56.00;;;11.48;48.90;96957.84;5042850;28;20441;-78
2023/04/13 09:23:59;;;;;;;4.60;1.47;;;11.50;56.60;;;11.19;48.35;96953.31;5047600;28;20198;-74
2023/04/13 09:26:26;;;;;;;4.33;2.33;;;11.40;56.20;;;11.40;48.96;96964.47;5046865;28;20472;-80
2023/04/13 09:28:56;;;;;;;3.10;1.20;;;11.20;56.90;;;11.16;48.19;96970.03;5044615;28;20767;-79
2023/04/13 09:31:24;;;;;;;2.77;1.10;;;11.20;56.10;;;11.31;47.30;96952.44;5047887;28;20445;-80
2023/04/13 09:33:53;;;;;;;4.23;1.60;;;11.30;55.40;;;11.16;47.56;96956.53;5047480;28;20507;-77
2023/04/13 09:36:22;;;;;;;2.93;1.63;;;11.20;55.30;;;10.83;49.34;96960.84;5053457;28;20441;-78
2023/04/13 09:38:56;;;;;;;5.97;1.67;;;11.00;56.00;;;10.96;49.29;96953.50;5051632;28;20445;-76
2023/04/13 09:41:31;;;;;;;3.70;1.43;;;10.90;56.30;;;11.68;47.39;96951.09;5045051;28;20831;-77
2023/04/13 09:43:59;;;;;;;5.43;2.13;;;11.30;56.00;;;11.58;47.70;96963.38;5073587;28;20871;-80
2023/04/13 09:46:27;;;;;;;3.63;1.83;;;11.40;55.90;;;11.45;47.35;96952.94;5045373;28;20465;-76
2023/04/13 09:49:00;;;;;;;6.00;1.87;;;11.50;55.20;;;11.77;47.32;96968.53;5063329;28;20513;-76
2023/04/13 09:51:35;;;;;;;3.70;1.30;;;11.50;55.60;;;12.12;46.49;96955.75;5064760;28;20520;-76
2023/04/13 09:54:05;;;;;;;3.00;1.30;;;11.80;55.40;;;12.05;46.05;96958.63;5046102;28;20778;-79
2023/04/13 09:56:45;;;;;;;3.20;1.37;;;11.90;54.70;;;12.56;44.29;96952.22;5041451;28;20480;-79
2023/04/13 09:59:13;;;;;;;3.13;1.30;;;12.30;54.00;;;12.59;44.11;96955.25;5046021;28;20453;-79
2023/04/13 10:01:41;;;;;;;4.70;1.00;;;12.40;53.60;;;12.44;44.33;96968.63;5038981;28;20464;-79
2023/04/13 10:04:09;;;;;;;3.33;1.83;;;12.40;53.10;;;12.58;44.29;96961.69;5040818;28;21083;-78
2023/04/13 10:06:39;;;;;;;2.73;0.77;;;12.40;53.20;;;11.75;43.96;96924.66;5055687;28;20481;-78
2023/04/13 10:09:08;;;;;;;3.23;1.23;;;12.20;51.90;;;12.03;44.48;96972.44;5038350;28;20457;-79
2023/04/13 10:11:39;;;;;;;5.07;1.43;;;12.00;52.40;;;12.17;44.63;96961.25;5039974;28;20452;-80
2023/04/13 10:14:19;;;;;;;5.73;1.20;;;12.10;52.90;;;12.45;44.52;96957.50;5051606;28;20466;-79
2023/04/13 10:17:13;;;;;;;3.27;1.37;;;12.30;52.70;;;12.39;43.85;96945.00;5054856;28;20449;-75
2023/04/13 10:19:46;;;;;;;3.77;1.30;;;12.50;52.40;;;12.28;44.52;96970.31;5050345;28;20428;-80
2023/04/13 10:22:15;;;;;;;2.03;1.00;;;12.30;52.40;;;11.52;44.65;96913.00;5038756;28;20456;-79
2023/04/13 10:24:45;;;;;;;5.20;1.50;;;12.00;52.00;;;11.84;45.47;96969.16;5043853;28;20449;-76
2023/04/13 10:27:17;;;;;;;2.83;1.40;;;11.80;52.50;;;12.07;45.43;96969.22;5067665;28;20458;-79
2023/04/13 10:29:45;;;;;;;5.10;1.23;;;11.90;52.80;;;11.97;45.38;96957.16;5054648;28;21108;-79
2023/04/13 10:32:21;;;;;;;3.27;1.30;;;11.90;53.10;;;12.06;46.16;96948.63;5051264;28;20445;-77
2023/04/13 10:34:49;;;;;;;1.90;1.27;;;11.90;53.50;;;12.21;46.21;96970.50;5050850;28;20562;-79